Time;durP1;ratioP1;P1;durP2;ratioP2;P2;SDS_P1;SDS_P2;PMS_P1;PMS_P2;Temp;Humidity;BMP_temperature;BMP_pressure;BME280_temperature;BME280_humidity;BME280_pressure;Samples;Min_cycle;Max_cycle;Signal;HPM_P1;HPM_P2
2022/03/24 00:13:06;;;;;;;7.88;3.88;;;19.80;50.80;;;;;;6114578;23;20017;31
2022/03/24 07:12:41;;;;;;;5.18;3.03;;;19.40;51.10;;;;;;5943682;23;20046;31
2022/03/24 07:19:09;;;;;;;5.28;2.78;;;19.20;51.00;;;;;;4903020;29;20047;-86
2022/03/24 07:52:39;;;;;;;5.20;3.13;;;19.30;51.10;;;;;;5072793;23;20518;-87
2022/03/24 07:56:18;;;;;;;4.47;2.83;;;19.20;51.10;;;;;;4922929;29;20048;-86
2022/03/24 08:29:28;;;;;;;6.25;4.10;;;19.40;51.10;;;;;;4940098;29;20118;-83
2022/03/24 08:46:24;;;;;;;10.57;5.82;;;18.50;50.60;;;;;;4966629;23;20059;-86
2022/03/24 08:49:26;;;;;;;11.95;6.78;;;19.40;51.10;;;;;;4897665;29;20519;-85
2022/03/24 08:52:12;;;;;;;15.15;8.55;;;19.30;51.10;;;;;;4936556;29;20086;-86
2022/03/24 08:54:44;;;;;;;14.15;8.95;;;19.40;51.30;;;;;;4916162;29;20047;-86
2022/03/24 08:57:25;;;;;;;13.73;8.98;;;19.70;51.20;;;;;;4913522;29;20048;-87
2022/03/24 09:46:47;;;;;;;11.35;6.18;;;19.60;50.40;;;;;;4552964;23;20041;31
2022/03/24 10:23:23;;;;;;;7.20;4.60;;;19.70;50.30;;;;;;4917856;29;20532;-91
2022/03/24 11:56:22;;;;;;;62.00;28.33;;;20.50;49.50;;;;;;4883694;29;20067;-85
2022/03/24 12:02:25;;;;;;;50.08;23.15;;;21.50;50.00;;;;;;4913732;29;20096;-86
2022/03/24 12:09:32;;;;;;;49.00;23.50;;;20.60;49.50;;;;;;4959054;29;20070;-86
2022/03/24 12:12:21;;;;;;;49.63;24.52;;;21.00;50.00;;;;;;4936143;29;20123;-86
2022/03/24 12:14:53;;;;;;;51.22;22.30;;;20.00;49.10;;;;;;4925121;29;20047;-86
2022/03/24 12:17:40;;;;;;;47.22;21.83;;;20.10;49.20;;;;;;4937525;29;20090;-86
2022/03/24 12:20:58;;;;;;;48.50;22.95;;;21.70;50.70;;;;;;4901124;29;20090;-87
2022/03/24 12:24:01;;;;;;;48.15;21.80;;;20.60;49.40;;;;;;4938929;29;20500;-86
2022/03/24 12:26:29;;;;;;;44.25;20.55;;;20.20;49.20;;;;;;4920970;29;20408;-86
2022/03/24 12:37:01;;;;;;;41.85;19.95;;;20.60;49.40;;;;;;4931127;29;20038;-86
2022/03/24 12:40:16;;;;;;;40.78;20.15;;;20.60;49.40;;;;;;4915706;29;20083;-86
2022/03/24 12:46:50;;;;;;;37.72;17.30;;;20.60;49.40;;;;;;4918494;29;20107;-87
2022/03/24 12:49:22;;;;;;;36.70;18.50;;;21.70;50.30;;;;;;4900404;29;20055;-86
2022/03/24 12:52:22;;;;;;;42.47;17.27;;;20.70;49.70;;;;;;4923844;29;20496;-88
2022/03/24 12:55:35;;;;;;;38.50;17.42;;;20.60;49.40;;;;;;4883649;29;20058;-88
2022/03/24 12:58:16;;;;;;;35.83;18.17;;;19.60;48.80;;;;;;4933794;29;20068;-88
2022/03/24 13:00:54;;;;;;;36.10;17.88;;;22.10;50.80;;;;;;4933585;29;20107;-87
2022/03/24 13:03:20;;;;;;;38.92;16.75;;;21.10;50.10;;;;;;4918045;29;20047;-90
2022/03/24 13:06:24;;;;;;;34.42;16.27;;;22.00;50.80;;;;;;4918160;29;20059;-88
2022/03/24 13:12:48;;;;;;;31.15;14.00;;;20.00;48.90;;;;;;4931088;29;20039;-89
2022/03/24 13:15:27;;;;;;;33.45;14.68;;;21.60;49.80;;;;;;4912300;29;20146;-88
2022/03/24 13:18:01;;;;;;;29.10;13.50;;;21.90;50.00;;;;;;4902413;29;20051;-88
2022/03/24 13:21:01;;;;;;;24.88;12.45;;;20.70;49.30;;;;;;4896317;29;20739;-89
2022/03/24 13:23:30;;;;;;;29.05;12.50;;;20.70;49.40;;;;;;4917661;29;20139;-89
2022/03/24 13:25:59;;;;;;;29.02;12.63;;;22.00;50.30;;;;;;4902783;29;20048;-88
2022/03/24 13:28:35;;;;;;;25.17;12.38;;;20.30;49.30;;;;;;4895251;29;20051;-90
2022/03/24 13:31:51;;;;;;;25.42;11.95;;;21.90;50.20;;;;;;4916322;29;20056;-90
2022/03/24 13:38:30;;;;;;;20.40;11.23;;;20.90;49.50;;;;;;4918991;29;20087;-90
2022/03/24 13:48:08;;;;;;;20.52;10.38;;;20.70;49.30;;;;;;4892117;29;20568;-84
2022/03/24 13:51:12;;;;;;;19.95;10.75;;;20.20;49.20;;;;;;4897311;29;20044;-88
2022/03/24 13:53:44;;;;;;;22.80;9.95;;;20.70;49.40;;;;;;4884643;29;20403;-90
2022/03/24 13:56:30;;;;;;;22.58;10.05;;;18.30;48.30;;;;;;4901882;29;20400;-90
2022/03/24 13:59:10;;;;;;;19.70;10.02;;;18.30;48.30;;;;;;4869846;29;20072;-93
2022/03/24 14:01:36;;;;;;;19.42;10.00;;;21.60;49.90;;;;;;4868155;29;20056;-92
2022/03/24 14:04:02;;;;;;;24.98;10.95;;;21.70;50.70;;;;;;4886040;29;20060;-86
2022/03/24 14:06:27;;;;;;;31.13;12.82;;;22.10;50.80;;;;;;4884235;29;20053;-91
2022/03/24 14:08:56;;;;;;;28.27;13.02;;;20.80;49.60;;;;;;4887930;29;20060;-87
2022/03/24 14:11:25;;;;;;;47.33;17.73;;;21.10;49.60;;;;;;4883796;29;20505;-90
2022/03/24 14:13:55;;;;;;;46.42;18.48;;;20.80;49.40;;;;;;4883274;29;20048;-89
2022/03/24 14:16:25;;;;;;;46.30;17.35;;;21.80;50.00;;;;;;4916524;29;20087;-91
2022/03/24 14:19:05;;;;;;;42.90;17.10;;;22.20;50.20;;;;;;4990566;23;20014;-89
2022/03/24 14:21:50;;;;;;;51.08;19.42;;;20.80;49.70;;;;;;4921196;29;20075;-88
2022/03/24 14:24:32;;;;;;;45.38;16.60;;;20.90;49.60;;;;;;4940184;29;20058;-87
2022/03/24 14:30:40;;;;;;;57.60;22.25;;;20.80;49.50;;;;;;4926869;29;20048;-90
2022/03/24 14:33:23;;;;;;;70.45;25.95;;;20.90;50.20;;;;;;4921013;29;20423;-88
2022/03/24 14:35:56;;;;;;;68.70;25.63;;;20.60;49.40;;;;;;4921729;29;20056;-84
2022/03/24 14:38:28;;;;;;;68.70;25.85;;;21.00;49.90;;;;;;4930847;29;20078;-85
2022/03/24 14:41:09;;;;;;;62.30;24.23;;;22.20;50.40;;;;;;4913710;29;20044;-84
2022/03/24 14:43:38;;;;;;;58.65;23.17;;;20.40;49.40;;;;;;4910677;29;20063;-83
2022/03/24 14:46:06;;;;;;;62.10;22.17;;;21.00;50.00;;;;;;4917448;29;20499;-85
2022/03/24 14:48:38;;;;;;;60.17;23.55;;;21.60;51.30;;;;;;4933362;29;20123;-85
2022/03/24 14:51:06;;;;;;;59.80;21.63;;;21.00;49.90;;;;;;4935424;29;20051;-84
2022/03/24 14:53:32;;;;;;;56.28;20.95;;;20.50;49.40;;;;;;4936385;29;20044;-85
2022/03/24 14:55:57;;;;;;;54.13;19.85;;;21.00;49.80;;;;;;4908161;29;20048;-84
2022/03/24 14:58:54;;;;;;;46.20;18.92;;;20.80;49.60;;;;;;4921224;29;20043;-84
2022/03/24 15:01:33;;;;;;;45.47;17.63;;;20.40;49.30;;;;;;4913801;29;20588;-86
2022/03/24 15:07:09;;;;;;;39.95;16.35;;;20.90;49.60;;;;;;4991530;23;20508;-86
2022/03/24 15:09:35;;;;;;;44.50;17.20;;;21.00;49.80;;;;;;4936993;29;20059;-85
2022/03/24 15:18:01;;;;;;;42.00;15.27;;;21.00;49.70;;;;;;4933443;29;20055;-85
2022/03/24 15:20:52;;;;;;;34.20;15.38;;;21.00;50.10;;;;;;4936387;29;20462;-85
2022/03/24 15:23:27;;;;;;;35.67;14.05;;;20.70;49.60;;;;;;4920802;29;20531;-86
2022/03/24 15:26:05;;;;;;;31.83;13.15;;;22.00;50.80;;;;;;4937811;29;20181;-86
2022/03/24 15:29:27;;;;;;;;;;;;;;;;;;;;;
2022/03/24 15:39:34;;;;;;;29.25;13.65;;;21.10;49.80;;;;;;4937756;29;20054;-86
2022/03/24 15:42:00;;;;;;;27.45;12.30;;;20.70;50.20;;;;;;4939291;29;20059;-85
2022/03/24 15:44:26;;;;;;;26.48;11.38;;;21.30;50.00;;;;;;4918770;29;20143;-85
2022/03/24 15:47:31;;;;;;;34.22;12.07;;;21.20;50.70;;;;;;4928063;29;20071;-85
2022/03/24 15:53:53;;;;;;;23.88;10.27;;;21.10;49.80;;;;;;4937694;29;20094;-85
2022/03/24 16:03:54;;;;;;;22.23;9.93;;;21.10;49.80;;;;;;4880228;29;20045;-86
2022/03/24 16:27:30;;;;;;;19.25;9.18;;;21.20;49.90;;;;;;4874330;29;20140;-84
2022/03/24 16:34:38;;;;;;;18.80;8.43;;;21.00;49.80;;;;;;4825954;29;20591;-85
2022/03/24 16:37:57;;;;;;;21.08;8.88;;;21.90;50.30;;;;;;4823562;29;20073;-85
2022/03/24 16:40:23;;;;;;;19.55;8.10;;;20.40;49.50;;;;;;4833380;23;20054;-85
2022/03/24 16:42:53;;;;;;;19.30;7.53;;;21.20;49.90;;;;;;4918839;29;20055;-85
2022/03/24 16:45:22;;;;;;;20.00;8.00;;;21.20;49.90;;;;;;4937411;29;20130;-85
2022/03/24 16:56:22;;;;;;;18.45;7.68;;;21.20;50.00;;;;;;5097151;23;20068;-85
2022/03/24 16:59:39;;;;;;;16.08;7.43;;;20.30;49.50;;;;;;4936870;29;20500;-85
2022/03/24 17:03:07;;;;;;;19.48;7.72;;;22.50;50.70;;;;;;4921550;29;20098;-86
2022/03/24 17:16:27;;;;;;;14.25;6.47;;;21.20;50.10;;;;;;5088452;23;20146;-85
2022/03/24 17:19:23;;;;;;;13.75;6.28;;;21.20;50.10;;;;;;4896948;29;20098;-85
2022/03/24 17:22:28;;;;;;;15.98;6.63;;;22.50;50.90;;;;;;4897044;29;20474;-86
2022/03/24 17:24:56;;;;;;;14.30;6.20;;;21.50;50.30;;;;;;4896287;29;20049;-85
2022/03/24 17:35:02;;;;;;;15.05;6.47;;;21.10;50.10;;;;;;4859528;29;20048;-88
2022/03/24 17:42:03;;;;;;;12.90;5.93;;;20.60;49.90;;;;;;4927751;29;20062;-88
2022/03/24 17:44:31;;;;;;;12.60;5.85;;;20.30;49.70;;;;;;4918907;29;20054;-88
2022/03/24 17:50:50;;;;;;;12.95;5.70;;;21.20;50.20;;;;;;5169979;23;20051;-84
2022/03/24 17:53:19;;;;;;;14.60;6.05;;;22.50;51.10;;;;;;5236597;23;20062;-87
2022/03/24 17:56:42;;;;;;;13.60;5.88;;;21.20;50.30;;;;;;4922026;29;20064;-89
2022/03/24 18:03:39;;;;;;;15.63;6.95;;;20.30;49.80;;;;;;4932751;29;19926;-91
2022/03/24 18:11:17;;;;;;;;;;;;;;;;;;;;;
2022/03/24 18:14:03;;;;;;;15.88;7.57;;;20.00;49.80;;;;;;5088103;23;20150;-91
2022/03/24 18:56:21;;;;;;;10.82;5.43;;;20.90;50.70;;;;;;5205175;23;20066;-85
2022/03/24 22:05:23;;;;;;;7.43;3.65;;;20.80;51.50;;;;;;4913237;29;20167;-87
2022/03/24 23:52:10;;;;;;;9.32;4.80;;;20.80;52.30;;;;;;4897390;29;20033;-86
2022/03/24 23:54:39;;;;;;;7.00;4.40;;;21.60;52.90;;;;;;4898877;29;20068;-86
2022/03/24 23:57:14;;;;;;;8.48;4.57;;;20.80;52.40;;;;;;4880341;29;20501;-85
2022/03/24 23:59:54;;;;;;;7.22;4.18;;;20.50;52.20;;;;;;4898281;29;20469;-86
